Time;durP1;ratioP1;P1;durP2;ratioP2;P2;SDS_P1;SDS_P2;PMS_P1;PMS_P2;Temp;Humidity;BMP_temperature;BMP_pressure;BME280_temperature;BME280_humidity;BME280_pressure;Samples;Min_cycle;Max_cycle;Signal;HPM_P1;HPM_P2
2021/04/20 00:02:22;;;;;;;4.35;2.28;;;1.50;99.90;;;;;;5091903;28;20233;-71
2021/04/20 00:04:48;;;;;;;5.68;2.20;;;1.40;99.90;;;;;;5077992;28;20196;-71
2021/04/20 00:07:14;;;;;;;2.95;2.00;;;1.40;99.90;;;;;;5077948;28;20199;-70
2021/04/20 00:09:40;;;;;;;7.13;2.25;;;1.40;99.90;;;;;;5081403;28;20223;-73
2021/04/20 00:12:07;;;;;;;5.05;2.30;;;1.30;99.90;;;;;;5077345;28;20581;-71
2021/04/20 00:14:32;;;;;;;6.70;1.92;;;1.30;99.90;;;;;;5076049;28;20204;-69
2021/04/20 00:16:58;;;;;;;4.13;2.30;;;1.20;99.90;;;;;;5076779;28;20688;-70
2021/04/20 00:19:24;;;;;;;4.35;2.10;;;1.10;99.90;;;;;;5075534;28;20624;-69
2021/04/20 00:21:50;;;;;;;5.20;1.75;;;1.10;99.90;;;;;;5073913;28;20223;-71
2021/04/20 00:24:16;;;;;;;3.45;1.92;;;1.10;99.90;;;;;;5080340;28;20292;-70
2021/04/20 00:26:41;;;;;;;3.95;2.00;;;1.00;99.90;;;;;;5078296;28;20612;-69
2021/04/20 00:29:07;;;;;;;5.80;2.00;;;0.90;99.90;;;;;;5076821;28;20241;-69
2021/04/20 00:31:33;;;;;;;6.68;2.20;;;0.90;99.90;;;;;;5077812;28;20687;-69
2021/04/20 00:33:58;;;;;;;7.38;2.28;;;0.80;99.90;;;;;;5078162;28;20196;-69
2021/04/20 00:36:24;;;;;;;3.95;1.67;;;0.80;99.90;;;;;;5077739;28;20210;-69
2021/04/20 00:38:50;;;;;;;6.47;2.20;;;0.70;99.90;;;;;;5078165;28;20303;-69
2021/04/20 00:41:17;;;;;;;3.97;2.17;;;0.70;99.90;;;;;;5074177;28;20226;-69
2021/04/20 00:43:46;;;;;;;12.80;2.40;;;0.60;99.90;;;;;;5078197;28;20270;-69
2021/04/20 00:46:17;;;;;;;9.43;2.50;;;0.60;99.90;;;;;;5078931;28;20208;-69
2021/04/20 00:48:44;;;;;;;4.88;2.00;;;0.60;99.90;;;;;;5080752;28;20192;-70
2021/04/20 00:51:10;;;;;;;5.75;2.00;;;0.50;99.90;;;;;;5076888;28;20208;-69
2021/04/20 00:53:36;;;;;;;5.13;1.98;;;0.60;99.90;;;;;;5079563;28;20192;-68
2021/04/20 00:56:03;;;;;;;5.35;2.25;;;0.60;99.90;;;;;;5078310;28;20563;-68
2021/04/20 00:58:29;;;;;;;6.93;2.05;;;0.70;99.90;;;;;;5078791;28;20207;-69
2021/04/20 01:00:56;;;;;;;2.88;2.10;;;0.70;99.90;;;;;;5076068;28;20547;-73
2021/04/20 01:05:51;;;;;;;10.13;2.30;;;0.70;99.90;;;;;;5017120;28;20226;-75
2021/04/20 01:08:19;;;;;;;5.88;2.28;;;0.70;99.90;;;;;;5023076;28;20648;-74
2021/04/20 01:10:51;;;;;;;3.85;2.17;;;0.60;99.90;;;;;;5025701;28;20214;-74
2021/04/20 01:13:17;;;;;;;6.10;2.33;;;0.50;99.90;;;;;;5024120;28;20194;-74
2021/04/20 01:15:47;;;;;;;5.47;2.45;;;0.50;99.90;;;;;;5022176;28;20273;-73
2021/04/20 01:18:21;;;;;;;10.18;2.63;;;0.50;99.90;;;;;;5020819;28;20198;-73
2021/04/20 01:20:53;;;;;;;9.63;2.50;;;0.40;99.90;;;;;;5019774;28;20224;-74
2021/04/20 01:23:43;;;;;;;7.10;2.20;;;0.40;99.90;;;;;;5018902;28;20195;-73
2021/04/20 01:26:10;;;;;;;6.00;2.10;;;0.30;99.90;;;;;;4987946;28;20542;-73
2021/04/20 01:28:36;;;;;;;6.57;2.55;;;0.30;99.90;;;;;;5022293;28;20761;-73
2021/04/20 01:31:02;;;;;;;4.38;2.40;;;0.20;99.90;;;;;;5021823;28;20209;-73
2021/04/20 01:33:28;;;;;;;2.63;1.80;;;0.20;99.90;;;;;;5024598;28;20197;-74
2021/04/20 01:35:54;;;;;;;4.72;2.28;;;0.10;99.90;;;;;;5024273;28;20753;-73
2021/04/20 01:38:20;;;;;;;7.43;2.50;;;0.10;99.90;;;;;;5021459;28;20278;-73
2021/04/20 01:40:46;;;;;;;4.20;2.17;;;0.10;99.90;;;;;;5024766;28;20292;-75
2021/04/20 01:43:13;;;;;;;6.93;2.17;;;0.10;99.90;;;;;;5023980;28;20556;-74
2021/04/20 01:45:41;;;;;;;3.45;2.03;;;0.10;99.90;;;;;;5023790;28;21333;-73
2021/04/20 01:48:07;;;;;;;3.70;2.20;;;0.00;99.90;;;;;;5024009;28;20213;-73
2021/04/20 01:50:33;;;;;;;8.40;2.45;;;0.00;99.90;;;;;;5021201;28;20187;-74
2021/04/20 01:52:58;;;;;;;14.52;2.20;;;0.00;99.90;;;;;;5018947;28;20201;-73
2021/04/20 01:55:24;;;;;;;5.75;2.15;;;-0.10;99.90;;;;;;5021834;28;20256;-74
2021/04/20 01:57:54;;;;;;;6.53;2.30;;;-0.10;99.90;;;;;;5024006;28;20644;-74
2021/04/20 02:00:21;;;;;;;4.68;2.35;;;-0.20;99.90;;;;;;5035927;28;20206;-76
2021/04/20 02:02:47;;;;;;;6.82;2.63;;;-0.20;99.90;;;;;;5021820;28;20435;-74
2021/04/20 02:05:13;;;;;;;3.40;1.70;;;-0.20;99.90;;;;;;5029036;28;20247;-73
2021/04/20 02:07:40;;;;;;;10.02;2.60;;;-0.30;99.90;;;;;;5014310;28;20201;-75
2021/04/20 02:10:08;;;;;;;5.85;2.17;;;-0.30;99.90;;;;;;5031310;28;20664;-76
2021/04/20 02:12:38;;;;;;;7.93;2.22;;;-0.30;99.90;;;;;;5028895;28;20190;-72
2021/04/20 02:15:06;;;;;;;5.78;2.47;;;-0.40;99.90;;;;;;5030040;28;20201;-73
2021/04/20 02:17:33;;;;;;;4.25;2.20;;;-0.40;99.90;;;;;;5032282;28;20211;-74
2021/04/20 02:20:01;;;;;;;4.07;2.42;;;-0.40;99.90;;;;;;5031279;28;20210;-73
2021/04/20 02:22:27;;;;;;;3.50;2.13;;;-0.50;99.90;;;;;;5024892;28;20194;-73
2021/04/20 02:24:53;;;;;;;4.38;2.10;;;-0.50;99.90;;;;;;5014388;28;20197;-74
2021/04/20 02:27:19;;;;;;;8.27;2.65;;;-0.60;99.90;;;;;;5024521;28;20194;-74
2021/04/20 02:29:45;;;;;;;10.45;2.53;;;-0.60;99.90;;;;;;5025507;28;20190;-73
2021/04/20 02:32:10;;;;;;;5.43;1.98;;;-0.60;99.90;;;;;;5025810;28;20213;-75
2021/04/20 02:34:36;;;;;;;4.10;2.03;;;-0.70;99.90;;;;;;5013644;28;20288;-74
2021/04/20 02:37:02;;;;;;;5.03;2.28;;;-0.70;99.90;;;;;;5013209;28;20190;-73
2021/04/20 02:39:29;;;;;;;5.15;2.50;;;-0.70;99.90;;;;;;5022808;28;20788;-74
2021/04/20 02:41:55;;;;;;;7.40;2.28;;;-0.80;99.90;;;;;;5025287;28;20255;-74
2021/04/20 02:44:21;;;;;;;5.05;2.25;;;-0.80;99.90;;;;;;5009529;28;20232;-73
2021/04/20 02:46:47;;;;;;;10.77;2.58;;;-0.90;99.90;;;;;;5006274;28;20217;-73
2021/04/20 02:49:14;;;;;;;3.83;2.20;;;-0.80;99.90;;;;;;5025672;28;20200;-73
2021/04/20 02:51:40;;;;;;;7.07;2.17;;;-0.90;99.90;;;;;;5025969;28;20202;-72
2021/04/20 02:54:08;;;;;;;8.60;2.25;;;-0.90;99.90;;;;;;5028700;28;20206;-75
2021/04/20 02:56:35;;;;;;;3.65;2.13;;;-0.90;99.90;;;;;;5012919;28;20317;-74
2021/04/20 02:59:08;;;;;;;6.93;2.22;;;-1.00;99.90;;;;;;5022003;28;20217;-75
2021/04/20 03:01:38;;;;;;;6.72;2.38;;;-1.00;99.90;;;;;;5025013;28;20206;-73
2021/04/20 03:04:04;;;;;;;4.35;2.25;;;-1.00;99.90;;;;;;5025864;28;20742;-73
2021/04/20 03:06:30;;;;;;;3.80;2.33;;;-1.00;99.90;;;;;;5012771;28;20284;-73
2021/04/20 03:08:57;;;;;;;8.52;2.20;;;-1.10;99.90;;;;;;5025069;28;20202;-74
2021/04/20 03:11:34;;;;;;;3.90;2.55;;;-1.10;99.90;;;;;;5004418;28;20206;-73
2021/04/20 03:14:06;;;;;;;3.83;2.33;;;-1.10;99.90;;;;;;5026425;28;20280;-74
2021/04/20 03:16:33;;;;;;;5.13;2.35;;;-1.10;99.90;;;;;;5021823;28;20194;-73
2021/04/20 03:19:02;;;;;;;8.55;2.30;;;-1.20;99.90;;;;;;5023587;28;20299;-73
2021/04/20 03:21:28;;;;;;;5.60;2.40;;;-1.20;99.90;;;;;;5025775;28;20205;-73
2021/04/20 03:23:56;;;;;;;9.20;2.45;;;-1.20;99.90;;;;;;5012271;28;20206;-73
2021/04/20 03:26:24;;;;;;;3.78;2.08;;;-1.30;99.90;;;;;;5025355;28;20205;-74
2021/04/20 03:28:57;;;;;;;4.10;2.40;;;-1.30;99.90;;;;;;5024791;28;20207;-73
2021/04/20 03:31:24;;;;;;;4.63;2.47;;;-1.30;99.90;;;;;;5023644;28;20214;-72
2021/04/20 03:34:04;;;;;;;3.28;2.15;;;-1.30;99.90;;;;;;5024939;28;20634;-73
2021/04/20 03:36:40;;;;;;;4.88;2.15;;;-1.30;99.90;;;;;;5024223;28;20217;-73
2021/04/20 03:39:34;;;;;;;7.13;2.30;;;-1.30;99.90;;;;;;5008728;28;20671;-73
2021/04/20 03:42:08;;;;;;;4.43;2.20;;;-1.30;99.90;;;;;;5019256;28;20276;-73
2021/04/20 03:44:57;;;;;;;4.32;2.10;;;-1.30;99.90;;;;;;5002104;28;20208;-72
2021/04/20 03:47:36;;;;;;;7.70;2.42;;;-1.40;99.90;;;;;;5024656;28;20248;-73
2021/04/20 03:50:04;;;;;;;4.90;2.10;;;-1.40;99.90;;;;;;5008945;28;20202;-73
2021/04/20 03:52:38;;;;;;;4.38;2.40;;;-1.40;99.90;;;;;;5006924;28;20201;-73
2021/04/20 03:55:08;;;;;;;3.45;2.15;;;-1.40;99.90;;;;;;5022512;28;20324;-73
2021/04/20 03:57:37;;;;;;;6.70;2.30;;;-1.40;99.90;;;;;;5022761;28;20633;-73
2021/04/20 04:00:05;;;;;;;8.68;2.42;;;-1.40;99.90;;;;;;5021903;28;20656;-73
2021/04/20 04:02:36;;;;;;;5.55;2.33;;;-1.40;99.90;;;;;;5026139;28;20555;-73
2021/04/20 04:05:03;;;;;;;4.65;2.20;;;-1.30;99.90;;;;;;5006245;28;20226;-75
2021/04/20 04:07:30;;;;;;;4.25;2.17;;;-1.30;99.90;;;;;;5024993;28;20256;-73
2021/04/20 04:09:56;;;;;;;6.07;2.40;;;-1.20;99.90;;;;;;5024554;28;20201;-74
2021/04/20 04:12:24;;;;;;;4.28;2.33;;;-1.20;99.90;;;;;;5022682;28;20206;-73
2021/04/20 04:14:50;;;;;;;9.68;2.63;;;-1.20;99.90;;;;;;5022755;28;20199;-72
2021/04/20 04:17:18;;;;;;;4.90;2.08;;;-1.10;99.90;;;;;;5005983;28;20283;-74
2021/04/20 04:19:46;;;;;;;7.15;2.42;;;-1.10;99.90;;;;;;5009290;28;20203;-75
2021/04/20 04:22:14;;;;;;;11.38;2.72;;;-1.00;99.90;;;;;;5021602;28;20195;-72
2021/04/20 04:24:50;;;;;;;6.60;2.65;;;-0.90;99.90;;;;;;5019213;28;20581;-75
2021/04/20 04:27:20;;;;;;;18.50;2.97;;;-0.90;99.90;;;;;;5021442;28;20595;-74
2021/04/20 04:29:48;;;;;;;7.70;2.88;;;-0.80;99.90;;;;;;5001257;28;20205;-74
2021/04/20 04:32:16;;;;;;;6.38;2.83;;;-0.70;99.90;;;;;;5022394;28;20310;-75
2021/04/20 04:34:44;;;;;;;10.05;3.90;;;-0.60;99.90;;;;;;5026394;28;20230;-74
2021/04/20 04:37:11;;;;;;;12.13;3.85;;;-0.60;99.90;;;;;;5028642;28;20205;-73
2021/04/20 04:39:37;;;;;;;10.27;4.13;;;-0.50;99.90;;;;;;5003550;28;20194;-72
2021/04/20 04:42:03;;;;;;;14.30;4.32;;;-0.40;99.90;;;;;;5011660;28;20219;-73
2021/04/20 04:44:29;;;;;;;10.93;4.18;;;-0.30;99.90;;;;;;5022360;28;20723;-73
2021/04/20 04:46:55;;;;;;;11.60;4.43;;;-0.20;99.90;;;;;;5027859;28;20277;-74
2021/04/20 04:49:22;;;;;;;13.65;4.53;;;-0.10;99.90;;;;;;5009124;28;20773;-74
2021/04/20 04:51:49;;;;;;;18.38;4.47;;;0.00;99.90;;;;;;5007559;28;20262;-74
2021/04/20 04:54:18;;;;;;;12.35;4.28;;;0.10;99.90;;;;;;5023492;28;20190;-74
2021/04/20 04:56:44;;;;;;;12.30;4.05;;;0.20;99.90;;;;;;5006673;28;20547;-74
2021/04/20 04:59:14;;;;;;;10.93;3.80;;;0.30;99.90;;;;;;5001311;28;20708;-75
2021/04/20 05:01:41;;;;;;;6.90;3.10;;;0.40;99.90;;;;;;5017364;28;20554;-74
2021/04/20 05:04:09;;;;;;;8.07;3.70;;;0.70;99.90;;;;;;5018915;28;20629;-74
2021/04/20 05:06:39;;;;;;;7.70;3.53;;;0.80;99.90;;;;;;5018735;28;20206;-73
2021/04/20 05:09:17;;;;;;;7.00;3.33;;;1.00;99.90;;;;;;5001599;28;20611;-73
2021/04/20 05:11:46;;;;;;;14.35;3.35;;;1.10;99.90;;;;;;4999944;28;20213;-73
2021/04/20 05:14:14;;;;;;;7.20;3.05;;;1.20;99.90;;;;;;5018119;28;20617;-73
2021/04/20 05:16:51;;;;;;;6.30;3.13;;;1.30;99.90;;;;;;5018924;28;20195;-76
2021/04/20 05:19:31;;;;;;;9.82;3.15;;;1.50;99.90;;;;;;5003244;28;20568;-75
2021/04/20 05:21:58;;;;;;;13.43;3.10;;;1.60;99.90;;;;;;5022193;28;20271;-73
2021/04/20 05:24:24;;;;;;;7.05;3.05;;;1.80;99.90;;;;;;5021885;28;20264;-74
2021/04/20 05:26:50;;;;;;;7.82;3.15;;;1.90;99.90;;;;;;4998151;28;20206;-74
2021/04/20 05:29:16;;;;;;;11.00;3.50;;;2.10;99.90;;;;;;5022779;28;20206;-74
2021/04/20 05:31:42;;;;;;;7.03;3.25;;;2.20;99.90;;;;;;5018345;28;20206;-75
2021/04/20 05:34:08;;;;;;;12.32;3.17;;;2.40;99.90;;;;;;5020373;28;20280;-74
2021/04/20 05:36:41;;;;;;;11.57;2.95;;;2.60;99.90;;;;;;5002200;28;20289;-73
2021/04/20 05:39:09;;;;;;;4.50;2.70;;;2.80;99.90;;;;;;5020785;28;20194;-75
2021/04/20 05:41:36;;;;;;;9.95;3.00;;;3.00;99.90;;;;;;5020738;28;20205;-74
2021/04/20 05:44:05;;;;;;;6.78;2.90;;;3.20;99.90;;;;;;4999862;28;20673;-72
2021/04/20 05:46:34;;;;;;;11.15;3.20;;;3.40;99.90;;;;;;5020574;28;20202;-76
2021/04/20 05:49:01;;;;;;;23.52;3.30;;;3.60;99.90;;;;;;5018591;28;20226;-74
2021/04/20 05:51:26;;;;;;;6.57;3.10;;;3.80;99.90;;;;;;5000226;28;20212;-74
2021/04/20 05:53:53;;;;;;;6.90;2.55;;;4.00;99.90;;;;;;5018298;28;20194;-74
2021/04/20 05:56:22;;;;;;;5.10;2.50;;;4.20;99.90;;;;;;5021645;28;20205;-74
2021/04/20 05:58:57;;;;;;;14.98;3.05;;;4.30;99.90;;;;;;5022776;28;20194;-73
2021/04/20 06:01:25;;;;;;;9.48;2.70;;;4.50;99.90;;;;;;5019835;28;20221;-73
2021/04/20 06:03:52;;;;;;;11.57;2.90;;;4.70;99.90;;;;;;5028546;28;20226;-75
2021/04/20 06:06:20;;;;;;;5.28;2.75;;;4.90;99.90;;;;;;5015933;28;20221;-73
2021/04/20 06:08:48;;;;;;;8.02;2.80;;;5.10;99.90;;;;;;5022656;28;21562;-76
2021/04/20 06:11:15;;;;;;;7.28;2.60;;;5.20;99.90;;;;;;5008395;28;20206;-74
2021/04/20 06:13:41;;;;;;;15.13;3.00;;;5.40;99.90;;;;;;5022954;28;20316;-74
2021/04/20 06:16:07;;;;;;;5.95;2.83;;;5.50;99.90;;;;;;5021289;28;20194;-74
2021/04/20 06:18:36;;;;;;;15.43;3.00;;;5.70;99.90;;;;;;5023263;28;20195;-73
2021/04/20 06:21:02;;;;;;;4.88;2.90;;;5.80;99.90;;;;;;5011032;28;20289;-74
2021/04/20 06:23:29;;;;;;;8.82;2.38;;;5.90;99.90;;;;;;5024008;28;20204;-73
2021/04/20 06:26:00;;;;;;;6.95;2.38;;;6.10;99.90;;;;;;5021320;28;20191;-71
2021/04/20 06:28:26;;;;;;;8.32;2.83;;;6.20;99.90;;;;;;5021155;28;20286;-72
2021/04/20 06:30:56;;;;;;;10.50;2.95;;;6.40;99.90;;;;;;5021193;28;20202;-72
2021/04/20 06:33:24;;;;;;;10.80;2.58;;;6.50;99.90;;;;;;5007318;28;20263;-72
2021/04/20 06:35:50;;;;;;;7.97;2.50;;;6.70;99.90;;;;;;5006797;28;20196;-72
2021/04/20 06:38:17;;;;;;;4.65;2.15;;;6.90;99.90;;;;;;5008072;28;20209;-73
2021/04/20 06:40:47;;;;;;;6.85;2.10;;;7.10;99.90;;;;;;5024165;28;20254;-72
2021/04/20 06:43:15;;;;;;;4.68;2.50;;;7.30;99.90;;;;;;5003233;28;20205;-71
2021/04/20 06:45:48;;;;;;;6.80;2.83;;;7.50;99.90;;;;;;5021194;28;20202;-73
2021/04/20 06:48:41;;;;;;;9.32;2.30;;;7.60;99.90;;;;;;5020770;28;20252;-72
2021/04/20 06:51:19;;;;;;;5.25;2.40;;;7.70;99.90;;;;;;5005391;28;20233;-71
2021/04/20 06:53:51;;;;;;;5.55;2.42;;;7.90;99.90;;;;;;5022396;28;20202;-71
2021/04/20 06:56:28;;;;;;;4.90;2.50;;;8.10;99.90;;;;;;5000685;28;20198;-72
2021/04/20 06:59:02;;;;;;;7.28;2.58;;;8.30;99.90;;;;;;5006450;28;20209;-71
2021/04/20 07:02:05;;;;;;;5.10;2.72;;;8.50;99.90;;;;;;5016734;28;20245;-72
2021/04/20 07:04:42;;;;;;;8.57;3.30;;;8.70;99.90;;;;;;5014986;28;20236;-74
2021/04/20 07:07:26;;;;;;;6.97;2.53;;;8.80;99.90;;;;;;5016560;28;20198;-72
2021/04/20 07:10:00;;;;;;;8.35;2.90;;;9.00;99.90;;;;;;5016378;28;20644;-72
2021/04/20 07:12:26;;;;;;;7.95;2.80;;;9.10;99.90;;;;;;5024881;28;20209;-72
2021/04/20 07:14:55;;;;;;;10.23;2.65;;;9.40;99.90;;;;;;4999087;28;20203;-72
2021/04/20 07:17:35;;;;;;;7.05;2.50;;;9.60;99.90;;;;;;5023398;28;20193;-72
2021/04/20 07:20:22;;;;;;;10.32;2.60;;;9.80;99.90;;;;;;5019020;28;20202;-73
2021/04/20 07:22:59;;;;;;;9.50;2.70;;;10.00;99.90;;;;;;5013005;28;20252;-72
2021/04/20 07:26:02;;;;;;;9.85;2.72;;;10.10;99.90;;;;;;5017302;28;20303;-72
2021/04/20 07:28:59;;;;;;;8.57;2.92;;;10.30;99.90;;;;;;5020345;28;20186;-73
2021/04/20 07:31:37;;;;;;;6.88;2.92;;;10.60;99.90;;;;;;5015767;28;20210;-72
2021/04/20 07:34:25;;;;;;;5.80;2.35;;;11.00;99.90;;;;;;5020292;28;20204;-72
2021/04/20 07:36:57;;;;;;;7.20;2.65;;;11.10;99.80;;;;;;5020420;28;20201;-72
2021/04/20 07:39:24;;;;;;;6.63;2.60;;;11.40;99.90;;;;;;5001455;28;20221;-73
2021/04/20 07:42:04;;;;;;;7.70;2.58;;;11.60;99.90;;;;;;5000577;28;20214;-72
2021/04/20 07:44:33;;;;;;;7.45;2.53;;;11.90;98.00;;;;;;5021571;28;20209;-72
2021/04/20 07:47:05;;;;;;;10.65;2.72;;;12.00;96.50;;;;;;5004808;28;20198;-72
2021/04/20 07:49:48;;;;;;;10.90;2.22;;;12.20;96.30;;;;;;5014753;28;20229;-74
2021/04/20 07:52:33;;;;;;;8.80;2.75;;;12.50;93.50;;;;;;5005594;28;20202;-72
2021/04/20 07:55:17;;;;;;;6.40;2.53;;;12.70;95.50;;;;;;5017541;28;20194;-72
2021/04/20 07:58:00;;;;;;;6.32;2.10;;;13.00;92.90;;;;;;5020568;28;20194;-72
2021/04/20 08:00:36;;;;;;;4.35;2.55;;;13.00;91.80;;;;;;5016863;28;20617;-72
2021/04/20 08:03:16;;;;;;;7.22;2.83;;;13.20;92.30;;;;;;5020569;28;20194;-73
2021/04/20 08:05:47;;;;;;;6.18;2.40;;;13.40;90.60;;;;;;5016043;28;20229;-73
2021/04/20 08:08:15;;;;;;;6.93;2.40;;;13.60;91.30;;;;;;5003353;28;20200;-71
2021/04/20 08:11:01;;;;;;;7.75;2.40;;;13.70;91.00;;;;;;5023390;28;20202;-74
2021/04/20 08:13:51;;;;;;;5.97;2.28;;;13.80;91.10;;;;;;5020551;28;20198;-72
2021/04/20 08:16:25;;;;;;;8.35;2.45;;;14.00;88.30;;;;;;5022257;28;20293;-75
2021/04/20 08:18:54;;;;;;;5.47;2.45;;;14.20;90.90;;;;;;5021116;28;20651;-73
2021/04/20 08:21:21;;;;;;;11.20;2.45;;;14.50;86.60;;;;;;5024101;28;20240;-73
2021/04/20 08:23:49;;;;;;;7.97;2.42;;;14.70;88.70;;;;;;5016895;28;20202;-76
2021/04/20 08:26:22;;;;;;;4.38;2.05;;;14.80;84.50;;;;;;4998934;28;20207;-75
2021/04/20 08:29:10;;;;;;;9.60;2.60;;;14.90;84.10;;;;;;5019090;28;20194;-74
2021/04/20 08:31:42;;;;;;;8.32;2.35;;;15.20;82.10;;;;;;5008758;28;20654;-73
2021/04/20 08:34:14;;;;;;;7.90;2.47;;;15.40;79.00;;;;;;5016103;28;20218;-76
2021/04/20 08:36:55;;;;;;;7.18;2.20;;;15.50;80.60;;;;;;5020704;28;20802;-74
2021/04/20 08:39:45;;;;;;;11.82;2.78;;;15.40;81.80;;;;;;5014132;28;20194;-73
2021/04/20 08:42:41;;;;;;;8.13;2.22;;;15.60;80.00;;;;;;5021430;28;20198;-72
2021/04/20 08:45:40;;;;;;;4.47;2.08;;;15.60;74.80;;;;;;4998919;28;20695;-72
2021/04/20 08:48:15;;;;;;;5.35;2.00;;;15.90;75.20;;;;;;5017222;28;20741;-72
2021/04/20 08:50:59;;;;;;;6.32;2.00;;;16.10;73.60;;;;;;4999360;28;20209;-74
2021/04/20 08:53:33;;;;;;;10.00;2.20;;;16.40;71.40;;;;;;5003174;28;20201;-73
2021/04/20 08:56:29;;;;;;;7.65;2.38;;;16.70;71.30;;;;;;5016260;28;20213;-72
2021/04/20 08:59:06;;;;;;;8.95;2.45;;;16.50;66.40;;;;;;5019800;28;20194;-71
2021/04/20 09:01:59;;;;;;;3.83;2.10;;;16.30;69.60;;;;;;5019755;28;20240;-72
2021/04/20 09:04:49;;;;;;;6.53;2.00;;;16.30;69.80;;;;;;5020756;28;20242;-71
2021/04/20 09:07:30;;;;;;;9.52;2.20;;;16.70;66.60;;;;;;5020671;28;20256;-72
2021/04/20 09:10:18;;;;;;;5.43;2.30;;;16.60;64.30;;;;;;5018006;28;20679;-72
2021/04/20 09:12:45;;;;;;;12.15;2.22;;;16.70;61.10;;;;;;5009185;28;20297;-72
2021/04/20 09:15:13;;;;;;;5.40;2.10;;;16.70;61.10;;;;;;5016457;28;20207;-73
2021/04/20 09:17:46;;;;;;;4.22;2.25;;;16.50;56.80;;;;;;5022402;28;20699;-73
2021/04/20 09:20:23;;;;;;;4.85;2.47;;;16.50;58.60;;;;;;5014321;28;20257;-72
2021/04/20 09:23:13;;;;;;;10.02;2.33;;;16.90;61.80;;;;;;5006557;28;20205;-72
2021/04/20 09:26:31;;;;;;;11.57;2.30;;;17.10;59.40;;;;;;5022407;28;20223;-71
2021/04/20 09:29:19;;;;;;;7.53;2.30;;;17.10;58.30;;;;;;4985820;28;20725;-71
2021/04/20 09:32:07;;;;;;;7.30;2.30;;;17.50;61.10;;;;;;5019647;28;20252;-73
2021/04/20 09:34:36;;;;;;;8.60;2.30;;;17.20;58.90;;;;;;5020486;28;20747;-73
2021/04/20 09:37:07;;;;;;;5.03;2.20;;;17.40;56.80;;;;;;5008483;28;20240;-72
2021/04/20 09:39:43;;;;;;;5.85;2.38;;;17.60;58.30;;;;;;5024476;28;20599;-71
2021/04/20 09:42:11;;;;;;;5.50;2.28;;;18.00;64.60;;;;;;5001123;28;20676;-72
2021/04/20 09:44:50;;;;;;;8.50;2.17;;;18.20;59.00;;;;;;5025907;28;20321;-72
2021/04/20 09:47:27;;;;;;;5.72;2.00;;;19.00;65.60;;;;;;5024355;28;20330;-74
2021/04/20 09:49:58;;;;;;;5.80;2.33;;;20.20;59.80;;;;;;5021031;28;20233;-73
2021/04/20 09:52:32;;;;;;;8.90;2.53;;;20.20;53.80;;;;;;5021589;28;20415;-73
2021/04/20 09:55:09;;;;;;;7.32;2.28;;;18.90;57.70;;;;;;5027684;28;20197;-72
2021/04/20 09:57:40;;;;;;;6.32;2.20;;;18.80;58.40;;;;;;5018699;28;20271;-73
2021/04/20 10:00:08;;;;;;;9.48;2.40;;;19.10;58.40;;;;;;5017574;28;20198;-72
2021/04/20 10:02:53;;;;;;;9.52;2.42;;;19.80;57.70;;;;;;5014809;28;20739;-71
2021/04/20 10:05:30;;;;;;;5.72;2.22;;;20.30;56.90;;;;;;5018268;28;20305;-72
2021/04/20 10:08:15;;;;;;;4.57;2.28;;;19.60;54.00;;;;;;5000012;28;20264;-71
2021/04/20 10:10:52;;;;;;;4.05;2.13;;;20.00;56.10;;;;;;5014470;28;20743;-74
2021/04/20 10:13:34;;;;;;;6.57;2.10;;;19.50;52.40;;;;;;5008422;28;20253;-72
2021/04/20 10:16:07;;;;;;;7.53;2.35;;;19.00;53.30;;;;;;5002030;28;20190;-73
2021/04/20 10:18:46;;;;;;;7.40;2.38;;;18.70;53.60;;;;;;5014864;28;20707;-72
2021/04/20 10:21:25;;;;;;;7.13;2.35;;;18.90;53.00;;;;;;5001099;28;20684;-73
2021/04/20 10:24:22;;;;;;;10.27;2.30;;;19.30;56.20;;;;;;5017128;28;20222;-73
2021/04/20 10:26:55;;;;;;;7.95;2.30;;;19.70;55.70;;;;;;5000085;28;20202;-72
2021/04/20 10:29:58;;;;;;;9.23;2.45;;;20.70;53.10;;;;;;5016185;28;20216;-72
2021/04/20 10:32:24;;;;;;;4.75;2.33;;;20.50;51.20;;;;;;5018991;28;20288;-73
2021/04/20 10:34:52;;;;;;;6.80;2.33;;;20.80;50.30;;;;;;5019447;28;20380;-73
2021/04/20 10:37:19;;;;;;;6.95;2.40;;;21.00;53.50;;;;;;5006419;28;20232;-72
2021/04/20 10:39:47;;;;;;;4.35;2.10;;;21.30;53.50;;;;;;5015630;28;20210;-73
2021/04/20 10:42:14;;;;;;;6.70;2.13;;;21.90;51.60;;;;;;5020306;28;20194;-74
2021/04/20 10:44:41;;;;;;;6.85;2.10;;;22.20;47.60;;;;;;4998275;28;20669;-74
2021/04/20 10:47:08;;;;;;;7.20;2.45;;;22.20;46.50;;;;;;5015332;28;20280;-73
2021/04/20 10:49:35;;;;;;;4.55;2.30;;;22.10;48.10;;;;;;5021070;28;20205;-74
2021/04/20 10:52:08;;;;;;;8.07;2.55;;;21.70;49.50;;;;;;5015240;28;20210;-75
2021/04/20 10:54:40;;;;;;;9.30;2.33;;;21.30;48.40;;;;;;5002872;28;20524;-74
2021/04/20 10:57:07;;;;;;;5.43;2.10;;;21.00;46.80;;;;;;5020416;28;20245;-74
2021/04/20 10:59:35;;;;;;;8.25;2.38;;;21.40;50.60;;;;;;5016968;28;20201;-74
2021/04/20 11:02:16;;;;;;;10.20;2.50;;;21.60;51.00;;;;;;4999428;28;20257;-75
2021/04/20 11:04:43;;;;;;;7.25;2.65;;;21.70;46.30;;;;;;5020233;28;20306;-74
2021/04/20 11:07:26;;;;;;;5.40;2.17;;;21.40;47.00;;;;;;5017353;28;20203;-74
2021/04/20 11:09:58;;;;;;;8.45;2.40;;;21.80;48.90;;;;;;5000077;28;20668;-75
2021/04/20 11:12:25;;;;;;;5.45;2.60;;;21.70;47.60;;;;;;5017772;28;20276;-74
2021/04/20 11:14:52;;;;;;;9.30;2.70;;;21.40;48.00;;;;;;5002773;28;20309;-74
2021/04/20 11:17:23;;;;;;;6.80;2.78;;;20.50;50.50;;;;;;5017375;28;20186;-73
2021/04/20 11:19:53;;;;;;;8.52;3.00;;;20.60;50.60;;;;;;5019868;28;20538;-74
2021/04/20 11:22:20;;;;;;;5.75;2.75;;;20.80;50.00;;;;;;5019467;28;20301;-73
2021/04/20 11:24:53;;;;;;;12.88;2.90;;;20.30;50.40;;;;;;5014253;28;20800;-73
2021/04/20 11:27:22;;;;;;;10.32;3.20;;;19.90;53.50;;;;;;5019569;28;20229;-73
2021/04/20 11:29:56;;;;;;;8.02;3.15;;;20.70;54.00;;;;;;5010854;28;20206;-74
2021/04/20 11:32:24;;;;;;;8.88;3.10;;;21.10;54.20;;;;;;5002381;28;20301;-73
2021/04/20 11:34:54;;;;;;;10.20;3.10;;;20.90;51.50;;;;;;5003490;28;20225;-74
2021/04/20 11:37:22;;;;;;;13.20;3.75;;;21.10;53.70;;;;;;5017352;28;20209;-73
2021/04/20 11:39:53;;;;;;;10.55;2.92;;;21.70;52.40;;;;;;5022152;28;20182;-74
2021/04/20 11:42:29;;;;;;;6.40;2.90;;;22.20;51.20;;;;;;5017597;28;20241;-74
2021/04/20 11:44:59;;;;;;;7.95;2.95;;;22.20;51.20;;;;;;5016096;28;20261;-73
2021/04/20 11:47:26;;;;;;;15.07;3.42;;;22.40;51.20;;;;;;4998274;28;20209;-72
2021/04/20 11:49:57;;;;;;;9.75;3.05;;;21.90;50.00;;;;;;5019858;28;20281;-73
2021/04/20 11:52:28;;;;;;;7.82;2.60;;;21.10;50.10;;;;;;5021205;28;20696;-74
2021/04/20 11:54:57;;;;;;;6.32;2.45;;;20.90;49.70;;;;;;5013862;28;20195;-73
2021/04/20 11:57:24;;;;;;;9.88;2.92;;;20.60;50.40;;;;;;5013053;28;20202;-73
2021/04/20 11:59:51;;;;;;;5.35;2.63;;;20.90;52.00;;;;;;5000675;28;20201;-73
2021/04/20 12:02:18;;;;;;;7.63;3.05;;;20.60;49.40;;;;;;5015219;28;20194;-73
2021/04/20 12:04:47;;;;;;;11.07;2.83;;;20.80;52.80;;;;;;4994190;28;20230;-73
2021/04/20 12:07:23;;;;;;;6.30;2.47;;;21.90;51.60;;;;;;5013930;28;20209;-73
2021/04/20 12:09:50;;;;;;;6.72;2.53;;;22.60;47.50;;;;;;4999638;28;20202;-74
2021/04/20 12:12:15;;;;;;;4.95;2.65;;;22.20;49.00;;;;;;5004467;28;20211;-73
2021/04/20 12:14:45;;;;;;;9.27;2.70;;;21.90;48.10;;;;;;5015064;28;20199;-73
2021/04/20 12:17:11;;;;;;;7.05;2.50;;;21.80;48.50;;;;;;4999072;28;20205;-73
2021/04/20 12:19:38;;;;;;;7.40;2.53;;;21.40;48.40;;;;;;4998633;28;20699;-73
2021/04/20 12:22:06;;;;;;;7.75;2.67;;;21.60;50.30;;;;;;5016898;28;20194;-73
2021/04/20 12:24:36;;;;;;;5.30;2.30;;;22.10;50.50;;;;;;5001869;28;20225;-73
2021/04/20 12:27:04;;;;;;;6.40;2.90;;;22.30;49.50;;;;;;5016634;28;20205;-74
2021/04/20 12:29:44;;;;;;;8.40;2.67;;;22.10;48.30;;;;;;5000706;28;20205;-73
2021/04/20 12:32:16;;;;;;;10.85;2.60;;;21.30;47.60;;;;;;5011852;28;20220;-73
2021/04/20 12:34:42;;;;;;;5.63;2.42;;;21.70;48.70;;;;;;5020191;28;20190;-74
2021/04/20 12:37:09;;;;;;;10.63;2.20;;;22.20;49.40;;;;;;5004229;28;20321;-73
2021/04/20 12:39:41;;;;;;;11.48;2.42;;;23.10;49.10;;;;;;4996045;28;20815;-73
2021/04/20 12:42:11;;;;;;;7.60;2.60;;;22.90;47.50;;;;;;5018672;28;20635;-73
2021/04/20 12:44:41;;;;;;;8.77;2.78;;;22.20;47.40;;;;;;4998698;28;20256;-72
2021/04/20 12:47:09;;;;;;;8.45;3.03;;;21.60;49.00;;;;;;5015806;28;20706;-72
2021/04/20 12:49:40;;;;;;;9.95;2.60;;;21.60;49.30;;;;;;5012972;28;20198;-73
2021/04/20 12:52:09;;;;;;;6.78;2.80;;;21.30;47.20;;;;;;4994376;28;20230;-72
2021/04/20 12:54:43;;;;;;;12.95;4.25;;;20.60;49.50;;;;;;5013975;28;20190;-76
2021/04/20 12:57:19;;;;;;;8.77;2.42;;;21.10;51.00;;;;;;5014391;28;20206;-73
2021/04/20 12:59:50;;;;;;;6.22;2.50;;;20.70;48.50;;;;;;5016721;28;20198;-73
2021/04/20 13:02:20;;;;;;;29.33;15.45;;;20.80;48.40;;;;;;5020868;28;20200;-73
2021/04/20 13:04:59;;;;;;;30.83;13.20;;;20.60;49.50;;;;;;4999734;28;20285;-74
2021/04/20 13:07:26;;;;;;;5.78;2.47;;;20.60;50.40;;;;;;5004870;28;20210;-74
2021/04/20 13:09:53;;;;;;;6.65;2.60;;;20.50;49.10;;;;;;5000364;28;20203;-73
2021/04/20 13:12:24;;;;;;;8.00;2.15;;;21.00;48.00;;;;;;5003879;28;20213;-73
2021/04/20 13:14:51;;;;;;;5.75;2.42;;;20.80;48.00;;;;;;5001464;28;20198;-73